sensor_id;sensor_type;location;lat;lon;timestamp;P1;durP1;ratioP1;P2;durP2;ratioP2
70829;SDS011;58451;51.550;7.208;2023-05-27T00:00:35;15.60;;;2.70;;
70829;SDS011;58451;51.550;7.208;2023-05-27T00:02:07;14.50;;;3.00;;
70829;SDS011;58451;51.550;7.208;2023-05-27T00:03:39;16.90;;;3.10;;
70829;SDS011;58451;51.550;7.208;2023-05-27T00:05:11;13.30;;;2.50;;
70829;SDS011;58451;51.550;7.208;2023-05-27T00:06:43;17.10;;;3.00;;
70829;SDS011;58451;51.550;7.208;2023-05-27T00:08:15;17.80;;;2.80;;
70829;SDS011;58451;51.550;7.208;2023-05-27T00:09:47;13.80;;;3.40;;
70829;SDS011;58451;51.550;7.208;2023-05-27T00:11:19;11.30;;;2.20;;
70829;SDS011;58451;51.550;7.208;2023-05-27T00:12:51;12.30;;;2.70;;
70829;SDS011;58451;51.550;7.208;2023-05-27T00:14:23;19.10;;;2.80;;
70829;SDS011;58451;51.550;7.208;2023-05-27T00:15:56;15.50;;;2.90;;
70829;SDS011;58451;51.550;7.208;2023-05-27T00:17:27;16.40;;;2.80;;
70829;SDS011;58451;51.550;7.208;2023-05-27T00:18:59;13.70;;;2.80;;
70829;SDS011;58451;51.550;7.208;2023-05-27T00:20:32;17.10;;;3.10;;
70829;SDS011;58451;51.550;7.208;2023-05-27T00:22:04;16.50;;;3.00;;
70829;SDS011;58451;51.550;7.208;2023-05-27T00:23:36;15.90;;;2.90;;
70829;SDS011;58451;51.550;7.208;2023-05-27T00:25:08;16.10;;;3.00;;
70829;SDS011;58451;51.550;7.208;2023-05-27T00:26:40;13.90;;;2.90;;
70829;SDS011;58451;51.550;7.208;2023-05-27T00:28:12;11.90;;;3.10;;
70829;SDS011;58451;51.550;7.208;2023-05-27T00:29:44;14.00;;;3.10;;
70829;SDS011;58451;51.550;7.208;2023-05-27T00:31:16;19.20;;;4.00;;
70829;SDS011;58451;51.550;7.208;2023-05-27T00:32:47;15.10;;;3.10;;
70829;SDS011;58451;51.550;7.208;2023-05-27T00:34:19;15.10;;;2.80;;
70829;SDS011;58451;51.550;7.208;2023-05-27T00:35:51;16.50;;;2.90;;
70829;SDS011;58451;51.550;7.208;2023-05-27T00:37:23;17.70;;;3.20;;
70829;SDS011;58451;51.550;7.208;2023-05-27T00:38:55;16.60;;;3.60;;
70829;SDS011;58451;51.550;7.208;2023-05-27T00:40:28;14.50;;;2.80;;
70829;SDS011;58451;51.550;7.208;2023-05-27T00:42:01;14.00;;;3.30;;
70829;SDS011;58451;51.550;7.208;2023-05-27T00:43:33;16.80;;;2.60;;
70829;SDS011;58451;51.550;7.208;2023-05-27T00:45:06;12.30;;;2.90;;
70829;SDS011;58451;51.550;7.208;2023-05-27T00:46:39;18.40;;;3.10;;
70829;SDS011;58451;51.550;7.208;2023-05-27T00:48:11;17.90;;;2.90;;
70829;SDS011;58451;51.550;7.208;2023-05-27T00:49:43;16.50;;;3.20;;
70829;SDS011;58451;51.550;7.208;2023-05-27T00:51:16;14.10;;;3.10;;
70829;SDS011;58451;51.550;7.208;2023-05-27T00:52:48;17.20;;;3.20;;
70829;SDS011;58451;51.550;7.208;2023-05-27T00:54:20;13.10;;;2.80;;
70829;SDS011;58451;51.550;7.208;2023-05-27T00:55:57;20.60;;;3.70;;
70829;SDS011;58451;51.550;7.208;2023-05-27T00:57:29;13.50;;;2.70;;
70829;SDS011;58451;51.550;7.208;2023-05-27T00:59:01;14.30;;;3.30;;
70829;SDS011;58451;51.550;7.208;2023-05-27T01:00:34;14.60;;;3.10;;
70829;SDS011;58451;51.550;7.208;2023-05-27T01:02:06;19.80;;;3.40;;
70829;SDS011;58451;51.550;7.208;2023-05-27T01:03:38;13.60;;;2.90;;
70829;SDS011;58451;51.550;7.208;2023-05-27T01:05:15;17.90;;;2.80;;
70829;SDS011;58451;51.550;7.208;2023-05-27T01:10:53;16.10;;;3.10;;
70829;SDS011;58451;51.550;7.208;2023-05-27T01:12:31;14.50;;;3.00;;
70829;SDS011;58451;51.550;7.208;2023-05-27T01:14:13;13.70;;;3.10;;
70829;SDS011;58451;51.550;7.208;2023-05-27T01:15:47;14.50;;;3.30;;
70829;SDS011;58451;51.550;7.208;2023-05-27T01:17:23;14.50;;;2.90;;
70829;SDS011;58451;51.550;7.208;2023-05-27T01:19:00;17.30;;;2.80;;
70829;SDS011;58451;51.550;7.208;2023-05-27T01:20:35;17.60;;;3.20;;
70829;SDS011;58451;51.550;7.208;2023-05-27T01:22:14;14.50;;;3.20;;
70829;SDS011;58451;51.550;7.208;2023-05-27T01:23:47;14.40;;;3.00;;
70829;SDS011;58451;51.550;7.208;2023-05-27T01:25:20;13.60;;;3.10;;
70829;SDS011;58451;51.550;7.208;2023-05-27T01:26:54;18.60;;;3.40;;
70829;SDS011;58451;51.550;7.208;2023-05-27T01:28:32;15.30;;;3.10;;
70829;SDS011;58451;51.550;7.208;2023-05-27T01:30:04;13.50;;;2.80;;
70829;SDS011;58451;51.550;7.208;2023-05-27T01:31:53;14.60;;;2.90;;
70829;SDS011;58451;51.550;7.208;2023-05-27T01:33:29;18.10;;;3.20;;
70829;SDS011;58451;51.550;7.208;2023-05-27T01:35:16;13.60;;;3.40;;
70829;SDS011;58451;51.550;7.208;2023-05-27T01:36:59;15.10;;;2.90;;
70829;SDS011;58451;51.550;7.208;2023-05-27T01:38:37;14.70;;;3.30;;
70829;SDS011;58451;51.550;7.208;2023-05-27T01:40:14;15.50;;;4.30;;
70829;SDS011;58451;51.550;7.208;2023-05-27T01:41:47;14.90;;;3.60;;
70829;SDS011;58451;51.550;7.208;2023-05-27T01:43:19;13.80;;;3.20;;
70829;SDS011;58451;51.550;7.208;2023-05-27T01:44:52;17.40;;;3.60;;
70829;SDS011;58451;51.550;7.208;2023-05-27T01:46:25;15.30;;;3.40;;
70829;SDS011;58451;51.550;7.208;2023-05-27T01:47:57;16.60;;;3.40;;
70829;SDS011;58451;51.550;7.208;2023-05-27T01:49:30;18.00;;;3.50;;
70829;SDS011;58451;51.550;7.208;2023-05-27T01:51:02;16.50;;;3.20;;
70829;SDS011;58451;51.550;7.208;2023-05-27T01:52:34;17.40;;;4.30;;
70829;SDS011;58451;51.550;7.208;2023-05-27T01:54:06;14.40;;;3.20;;
70829;SDS011;58451;51.550;7.208;2023-05-27T01:55:38;16.50;;;3.60;;
70829;SDS011;58451;51.550;7.208;2023-05-27T01:57:10;17.70;;;4.00;;
70829;SDS011;58451;51.550;7.208;2023-05-27T01:58:43;15.60;;;3.40;;
70829;SDS011;58451;51.550;7.208;2023-05-27T02:00:15;16.30;;;3.20;;
70829;SDS011;58451;51.550;7.208;2023-05-27T02:01:47;17.80;;;3.60;;
70829;SDS011;58451;51.550;7.208;2023-05-27T02:03:18;18.40;;;4.20;;
70829;SDS011;58451;51.550;7.208;2023-05-27T02:04:50;19.90;;;3.80;;
70829;SDS011;58451;51.550;7.208;2023-05-27T02:06:22;15.50;;;2.60;;
70829;SDS011;58451;51.550;7.208;2023-05-27T02:07:54;19.00;;;3.30;;
70829;SDS011;58451;51.550;7.208;2023-05-27T02:09:29;16.30;;;3.30;;
70829;SDS011;58451;51.550;7.208;2023-05-27T02:11:01;14.00;;;3.50;;
70829;SDS011;58451;51.550;7.208;2023-05-27T02:12:34;17.70;;;3.50;;
70829;SDS011;58451;51.550;7.208;2023-05-27T02:14:07;11.40;;;2.80;;
70829;SDS011;58451;51.550;7.208;2023-05-27T02:15:39;15.00;;;3.40;;
70829;SDS011;58451;51.550;7.208;2023-05-27T02:17:12;16.40;;;3.40;;
70829;SDS011;58451;51.550;7.208;2023-05-27T02:18:49;16.90;;;3.70;;
70829;SDS011;58451;51.550;7.208;2023-05-27T02:20:21;18.90;;;3.70;;
70829;SDS011;58451;51.550;7.208;2023-05-27T02:21:53;19.20;;;4.50;;
70829;SDS011;58451;51.550;7.208;2023-05-27T02:23:25;19.00;;;3.80;;
70829;SDS011;58451;51.550;7.208;2023-05-27T02:24:57;19.80;;;3.50;;
70829;SDS011;58451;51.550;7.208;2023-05-27T02:26:29;15.80;;;3.10;;
70829;SDS011;58451;51.550;7.208;2023-05-27T02:28:01;15.30;;;3.60;;
70829;SDS011;58451;51.550;7.208;2023-05-27T02:29:34;18.10;;;3.50;;
70829;SDS011;58451;51.550;7.208;2023-05-27T02:31:07;17.70;;;3.70;;
70829;SDS011;58451;51.550;7.208;2023-05-27T02:32:41;12.90;;;3.80;;
70829;SDS011;58451;51.550;7.208;2023-05-27T02:34:13;21.40;;;4.40;;
70829;SDS011;58451;51.550;7.208;2023-05-27T02:35:46;14.80;;;3.80;;
70829;SDS011;58451;51.550;7.208;2023-05-27T02:37:18;14.60;;;3.50;;
70829;SDS011;58451;51.550;7.208;2023-05-27T02:38:49;14.60;;;3.50;;
70829;SDS011;58451;51.550;7.208;2023-05-27T02:40:28;18.10;;;3.20;;
70829;SDS011;58451;51.550;7.208;2023-05-27T02:42:00;13.40;;;3.60;;
70829;SDS011;58451;51.550;7.208;2023-05-27T02:43:32;16.50;;;3.50;;
70829;SDS011;58451;51.550;7.208;2023-05-27T02:45:04;17.30;;;3.70;;
70829;SDS011;58451;51.550;7.208;2023-05-27T02:46:37;14.60;;;3.40;;
70829;SDS011;58451;51.550;7.208;2023-05-27T02:48:10;17.50;;;3.50;;
70829;SDS011;58451;51.550;7.208;2023-05-27T02:49:42;17.40;;;3.90;;
70829;SDS011;58451;51.550;7.208;2023-05-27T02:51:14;17.50;;;3.90;;
70829;SDS011;58451;51.550;7.208;2023-05-27T02:52:46;18.50;;;4.10;;
70829;SDS011;58451;51.550;7.208;2023-05-27T02:54:18;14.90;;;3.50;;
70829;SDS011;58451;51.550;7.208;2023-05-27T02:55:50;14.10;;;3.80;;
70829;SDS011;58451;51.550;7.208;2023-05-27T02:57:22;17.80;;;3.80;;
70829;SDS011;58451;51.550;7.208;2023-05-27T02:58:54;24.40;;;4.30;;
70829;SDS011;58451;51.550;7.208;2023-05-27T03:00:26;17.10;;;3.70;;
70829;SDS011;58451;51.550;7.208;2023-05-27T03:01:58;14.70;;;4.00;;
70829;SDS011;58451;51.550;7.208;2023-05-27T03:03:30;16.40;;;4.30;;
70829;SDS011;58451;51.550;7.208;2023-05-27T03:05:03;15.20;;;3.90;;
70829;SDS011;58451;51.550;7.208;2023-05-27T03:06:36;15.20;;;3.60;;
70829;SDS011;58451;51.550;7.208;2023-05-27T03:08:08;19.10;;;4.10;;
70829;SDS011;58451;51.550;7.208;2023-05-27T03:09:40;16.80;;;4.10;;
70829;SDS011;58451;51.550;7.208;2023-05-27T03:11:12;18.30;;;4.30;;
70829;SDS011;58451;51.550;7.208;2023-05-27T03:12:43;18.90;;;5.20;;
70829;SDS011;58451;51.550;7.208;2023-05-27T03:14:15;19.30;;;4.50;;
70829;SDS011;58451;51.550;7.208;2023-05-27T03:15:47;15.70;;;4.10;;
70829;SDS011;58451;51.550;7.208;2023-05-27T03:17:20;16.40;;;3.90;;
70829;SDS011;58451;51.550;7.208;2023-05-27T03:18:52;18.80;;;4.30;;
70829;SDS011;58451;51.550;7.208;2023-05-27T03:20:24;22.90;;;5.30;;
70829;SDS011;58451;51.550;7.208;2023-05-27T03:21:56;17.20;;;4.10;;
70829;SDS011;58451;51.550;7.208;2023-05-27T03:23:29;16.20;;;4.30;;
70829;SDS011;58451;51.550;7.208;2023-05-27T03:25:02;27.40;;;5.40;;
70829;SDS011;58451;51.550;7.208;2023-05-27T03:26:34;21.10;;;4.60;;
70829;SDS011;58451;51.550;7.208;2023-05-27T03:28:08;19.40;;;4.40;;
70829;SDS011;58451;51.550;7.208;2023-05-27T03:29:40;20.30;;;4.20;;
70829;SDS011;58451;51.550;7.208;2023-05-27T03:31:12;19.10;;;4.00;;
70829;SDS011;58451;51.550;7.208;2023-05-27T03:32:52;16.90;;;4.60;;
70829;SDS011;58451;51.550;7.208;2023-05-27T03:34:29;18.70;;;5.20;;
70829;SDS011;58451;51.550;7.208;2023-05-27T03:36:01;20.80;;;4.10;;
70829;SDS011;58451;51.550;7.208;2023-05-27T03:37:33;18.70;;;4.50;;
70829;SDS011;58451;51.550;7.208;2023-05-27T03:39:08;15.70;;;3.80;;
70829;SDS011;58451;51.550;7.208;2023-05-27T03:40:42;18.50;;;4.00;;
70829;SDS011;58451;51.550;7.208;2023-05-27T03:42:14;17.60;;;4.40;;
70829;SDS011;58451;51.550;7.208;2023-05-27T03:43:46;18.20;;;4.90;;
70829;SDS011;58451;51.550;7.208;2023-05-27T03:45:18;18.10;;;4.10;;
70829;SDS011;58451;51.550;7.208;2023-05-27T03:46:50;16.70;;;4.40;;
70829;SDS011;58451;51.550;7.208;2023-05-27T03:48:22;21.00;;;4.90;;
70829;SDS011;58451;51.550;7.208;2023-05-27T03:49:54;19.00;;;4.20;;
70829;SDS011;58451;51.550;7.208;2023-05-27T03:51:26;21.40;;;4.80;;
70829;SDS011;58451;51.550;7.208;2023-05-27T03:52:58;24.20;;;5.70;;
70829;SDS011;58451;51.550;7.208;2023-05-27T03:54:31;19.00;;;4.00;;
70829;SDS011;58451;51.550;7.208;2023-05-27T03:56:03;17.50;;;3.90;;
70829;SDS011;58451;51.550;7.208;2023-05-27T03:57:35;17.50;;;4.30;;
70829;SDS011;58451;51.550;7.208;2023-05-27T03:59:07;15.90;;;4.30;;
70829;SDS011;58451;51.550;7.208;2023-05-27T04:00:40;20.00;;;5.30;;
70829;SDS011;58451;51.550;7.208;2023-05-27T04:02:13;18.40;;;4.50;;
70829;SDS011;58451;51.550;7.208;2023-05-27T04:03:44;15.50;;;4.10;;
70829;SDS011;58451;51.550;7.208;2023-05-27T04:05:16;17.70;;;4.60;;
70829;SDS011;58451;51.550;7.208;2023-05-27T04:06:50;18.40;;;4.30;;
70829;SDS011;58451;51.550;7.208;2023-05-27T04:08:22;17.20;;;4.10;;
70829;SDS011;58451;51.550;7.208;2023-05-27T04:09:57;14.70;;;3.80;;
70829;SDS011;58451;51.550;7.208;2023-05-27T04:11:29;14.70;;;4.30;;
70829;SDS011;58451;51.550;7.208;2023-05-27T04:13:02;18.00;;;4.50;;
70829;SDS011;58451;51.550;7.208;2023-05-27T04:14:33;17.10;;;5.00;;
70829;SDS011;58451;51.550;7.208;2023-05-27T04:16:06;17.50;;;4.70;;
70829;SDS011;58451;51.550;7.208;2023-05-27T04:17:40;22.40;;;5.00;;
70829;SDS011;58451;51.550;7.208;2023-05-27T04:19:12;23.50;;;5.20;;
70829;SDS011;58451;51.550;7.208;2023-05-27T04:20:45;17.00;;;4.70;;
70829;SDS011;58451;51.550;7.208;2023-05-27T04:22:19;18.20;;;4.20;;
70829;SDS011;58451;51.550;7.208;2023-05-27T04:23:51;17.50;;;4.80;;
70829;SDS011;58451;51.550;7.208;2023-05-27T04:25:22;22.90;;;4.90;;
70829;SDS011;58451;51.550;7.208;2023-05-27T04:27:20;18.80;;;4.20;;
70829;SDS011;58451;51.550;7.208;2023-05-27T04:28:56;15.80;;;4.40;;
70829;SDS011;58451;51.550;7.208;2023-05-27T04:30:31;16.80;;;4.70;;
70829;SDS011;58451;51.550;7.208;2023-05-27T04:32:05;23.60;;;4.50;;
70829;SDS011;58451;51.550;7.208;2023-05-27T04:33:40;13.80;;;3.70;;
70829;SDS011;58451;51.550;7.208;2023-05-27T04:35:12;15.90;;;3.60;;
70829;SDS011;58451;51.550;7.208;2023-05-27T04:36:44;15.20;;;4.30;;
70829;SDS011;58451;51.550;7.208;2023-05-27T04:38:22;14.00;;;3.40;;
70829;SDS011;58451;51.550;7.208;2023-05-27T04:40:00;14.60;;;4.40;;
70829;SDS011;58451;51.550;7.208;2023-05-27T04:41:32;16.10;;;4.40;;
70829;SDS011;58451;51.550;7.208;2023-05-27T04:43:23;18.40;;;4.20;;
70829;SDS011;58451;51.550;7.208;2023-05-27T04:44:56;19.60;;;4.00;;
70829;SDS011;58451;51.550;7.208;2023-05-27T04:46:28;16.20;;;3.90;;
70829;SDS011;58451;51.550;7.208;2023-05-27T04:48:00;22.80;;;4.30;;
70829;SDS011;58451;51.550;7.208;2023-05-27T04:49:32;13.30;;;4.20;;
70829;SDS011;58451;51.550;7.208;2023-05-27T04:51:06;22.40;;;4.50;;
70829;SDS011;58451;51.550;7.208;2023-05-27T04:52:39;14.20;;;3.90;;
70829;SDS011;58451;51.550;7.208;2023-05-27T04:54:12;15.50;;;4.10;;
70829;SDS011;58451;51.550;7.208;2023-05-27T04:55:44;18.90;;;4.10;;
70829;SDS011;58451;51.550;7.208;2023-05-27T04:57:17;15.70;;;3.90;;
70829;SDS011;58451;51.550;7.208;2023-05-27T04:58:50;18.40;;;4.30;;
70829;SDS011;58451;51.550;7.208;2023-05-27T05:00:25;16.60;;;4.30;;
70829;SDS011;58451;51.550;7.208;2023-05-27T05:02:22;16.60;;;4.20;;
70829;SDS011;58451;51.550;7.208;2023-05-27T05:04:17;18.00;;;4.30;;
70829;SDS011;58451;51.550;7.208;2023-05-27T05:05:52;17.70;;;3.90;;
70829;SDS011;58451;51.550;7.208;2023-05-27T05:07:25;17.70;;;4.10;;
70829;SDS011;58451;51.550;7.208;2023-05-27T05:08:57;12.60;;;3.90;;
70829;SDS011;58451;51.550;7.208;2023-05-27T05:10:30;16.50;;;3.90;;
70829;SDS011;58451;51.550;7.208;2023-05-27T05:12:03;15.80;;;4.40;;
70829;SDS011;58451;51.550;7.208;2023-05-27T05:13:39;20.40;;;4.10;;
70829;SDS011;58451;51.550;7.208;2023-05-27T05:15:11;14.80;;;3.20;;
70829;SDS011;58451;51.550;7.208;2023-05-27T05:16:43;18.90;;;4.80;;
70829;SDS011;58451;51.550;7.208;2023-05-27T05:18:16;16.20;;;3.90;;
70829;SDS011;58451;51.550;7.208;2023-05-27T05:19:48;20.60;;;4.30;;
70829;SDS011;58451;51.550;7.208;2023-05-27T05:21:20;17.80;;;4.40;;
70829;SDS011;58451;51.550;7.208;2023-05-27T05:22:52;15.50;;;4.40;;
70829;SDS011;58451;51.550;7.208;2023-05-27T05:24:24;19.30;;;4.10;;
70829;SDS011;58451;51.550;7.208;2023-05-27T05:25:56;16.60;;;4.80;;
70829;SDS011;58451;51.550;7.208;2023-05-27T05:27:30;15.10;;;4.20;;
70829;SDS011;58451;51.550;7.208;2023-05-27T05:29:02;17.40;;;4.30;;
70829;SDS011;58451;51.550;7.208;2023-05-27T05:30:35;16.10;;;4.20;;
70829;SDS011;58451;51.550;7.208;2023-05-27T05:32:08;12.80;;;3.80;;
70829;SDS011;58451;51.550;7.208;2023-05-27T05:33:43;13.10;;;3.90;;
70829;SDS011;58451;51.550;7.208;2023-05-27T05:35:15;15.30;;;4.40;;
70829;SDS011;58451;51.550;7.208;2023-05-27T05:36:50;15.70;;;3.90;;
70829;SDS011;58451;51.550;7.208;2023-05-27T05:38:22;14.90;;;4.00;;
70829;SDS011;58451;51.550;7.208;2023-05-27T05:39:57;13.70;;;3.50;;
70829;SDS011;58451;51.550;7.208;2023-05-27T05:41:29;15.50;;;4.00;;
70829;SDS011;58451;51.550;7.208;2023-05-27T05:43:01;17.70;;;4.60;;
70829;SDS011;58451;51.550;7.208;2023-05-27T05:44:33;15.10;;;3.90;;
70829;SDS011;58451;51.550;7.208;2023-05-27T05:46:06;17.10;;;4.30;;
70829;SDS011;58451;51.550;7.208;2023-05-27T05:47:38;16.90;;;4.10;;
70829;SDS011;58451;51.550;7.208;2023-05-27T05:49:13;13.60;;;3.30;;
70829;SDS011;58451;51.550;7.208;2023-05-27T05:50:47;15.30;;;4.40;;
70829;SDS011;58451;51.550;7.208;2023-05-27T05:52:20;15.20;;;3.90;;
70829;SDS011;58451;51.550;7.208;2023-05-27T05:53:52;15.30;;;4.10;;
70829;SDS011;58451;51.550;7.208;2023-05-27T05:55:26;15.10;;;4.50;;
70829;SDS011;58451;51.550;7.208;2023-05-27T05:57:00;23.80;;;4.80;;
70829;SDS011;58451;51.550;7.208;2023-05-27T05:58:34;19.10;;;4.90;;
70829;SDS011;58451;51.550;7.208;2023-05-27T06:00:06;15.30;;;3.70;;
70829;SDS011;58451;51.550;7.208;2023-05-27T06:01:48;17.40;;;4.50;;
70829;SDS011;58451;51.550;7.208;2023-05-27T06:03:20;15.90;;;4.80;;
70829;SDS011;58451;51.550;7.208;2023-05-27T06:04:55;11.50;;;3.50;;
70829;SDS011;58451;51.550;7.208;2023-05-27T06:06:27;21.90;;;5.10;;
70829;SDS011;58451;51.550;7.208;2023-05-27T06:08:20;18.90;;;4.60;;
70829;SDS011;58451;51.550;7.208;2023-05-27T06:10:00;15.10;;;4.80;;
70829;SDS011;58451;51.550;7.208;2023-05-27T06:11:38;21.10;;;4.70;;
70829;SDS011;58451;51.550;7.208;2023-05-27T06:13:11;17.60;;;4.30;;
70829;SDS011;58451;51.550;7.208;2023-05-27T06:14:43;15.40;;;4.20;;
70829;SDS011;58451;51.550;7.208;2023-05-27T06:16:15;17.60;;;4.80;;
70829;SDS011;58451;51.550;7.208;2023-05-27T06:17:47;14.80;;;4.60;;
70829;SDS011;58451;51.550;7.208;2023-05-27T06:19:20;17.50;;;4.70;;
70829;SDS011;58451;51.550;7.208;2023-05-27T06:20:52;16.50;;;4.80;;
70829;SDS011;58451;51.550;7.208;2023-05-27T06:22:26;16.40;;;4.20;;
70829;SDS011;58451;51.550;7.208;2023-05-27T06:24:16;16.20;;;3.90;;
70829;SDS011;58451;51.550;7.208;2023-05-27T06:25:49;14.30;;;3.70;;
70829;SDS011;58451;51.550;7.208;2023-05-27T06:27:21;17.10;;;5.00;;
70829;SDS011;58451;51.550;7.208;2023-05-27T06:28:53;15.60;;;4.40;;
70829;SDS011;58451;51.550;7.208;2023-05-27T06:30:25;15.30;;;4.40;;
70829;SDS011;58451;51.550;7.208;2023-05-27T06:31:59;15.10;;;3.90;;
70829;SDS011;58451;51.550;7.208;2023-05-27T06:33:31;18.80;;;4.40;;
70829;SDS011;58451;51.550;7.208;2023-05-27T06:35:04;18.70;;;5.00;;
70829;SDS011;58451;51.550;7.208;2023-05-27T06:36:36;18.30;;;4.40;;
70829;SDS011;58451;51.550;7.208;2023-05-27T06:38:08;15.70;;;4.40;;
70829;SDS011;58451;51.550;7.208;2023-05-27T06:39:40;13.20;;;4.40;;
70829;SDS011;58451;51.550;7.208;2023-05-27T06:41:11;15.30;;;4.20;;
70829;SDS011;58451;51.550;7.208;2023-05-27T06:42:48;15.50;;;4.40;;
70829;SDS011;58451;51.550;7.208;2023-05-27T06:44:35;17.70;;;5.00;;
70829;SDS011;58451;51.550;7.208;2023-05-27T06:46:14;19.20;;;5.10;;
70829;SDS011;58451;51.550;7.208;2023-05-27T06:47:56;13.10;;;4.80;;
70829;SDS011;58451;51.550;7.208;2023-05-27T06:49:28;13.00;;;3.50;;
70829;SDS011;58451;51.550;7.208;2023-05-27T06:51:01;18.70;;;4.90;;
70829;SDS011;58451;51.550;7.208;2023-05-27T06:52:34;16.50;;;4.70;;
70829;SDS011;58451;51.550;7.208;2023-05-27T06:54:21;16.00;;;4.20;;
70829;SDS011;58451;51.550;7.208;2023-05-27T06:55:53;18.90;;;4.80;;
70829;SDS011;58451;51.550;7.208;2023-05-27T06:57:47;15.20;;;4.30;;
70829;SDS011;58451;51.550;7.208;2023-05-27T06:59:28;15.60;;;5.00;;
70829;SDS011;58451;51.550;7.208;2023-05-27T07:01:00;14.80;;;4.60;;
70829;SDS011;58451;51.550;7.208;2023-05-27T07:02:35;16.60;;;4.50;;
70829;SDS011;58451;51.550;7.208;2023-05-27T07:04:07;17.90;;;5.00;;
70829;SDS011;58451;51.550;7.208;2023-05-27T07:05:56;16.00;;;4.30;;
70829;SDS011;58451;51.550;7.208;2023-05-27T07:07:29;15.90;;;4.10;;
70829;SDS011;58451;51.550;7.208;2023-05-27T07:09:01;16.80;;;4.20;;
70829;SDS011;58451;51.550;7.208;2023-05-27T07:10:37;16.10;;;4.90;;
70829;SDS011;58451;51.550;7.208;2023-05-27T07:12:09;16.80;;;4.60;;
70829;SDS011;58451;51.550;7.208;2023-05-27T07:14:04;15.10;;;4.10;;
70829;SDS011;58451;51.550;7.208;2023-05-27T07:15:37;19.00;;;5.00;;
70829;SDS011;58451;51.550;7.208;2023-05-27T07:17:09;16.70;;;4.80;;
70829;SDS011;58451;51.550;7.208;2023-05-27T07:18:40;17.60;;;4.80;;
70829;SDS011;58451;51.550;7.208;2023-05-27T07:20:13;19.30;;;5.50;;
70829;SDS011;58451;51.550;7.208;2023-05-27T07:21:46;18.40;;;4.70;;
70829;SDS011;58451;51.550;7.208;2023-05-27T07:23:21;17.70;;;5.20;;
70829;SDS011;58451;51.550;7.208;2023-05-27T07:24:59;17.40;;;4.60;;
70829;SDS011;58451;51.550;7.208;2023-05-27T07:26:33;14.70;;;4.30;;
70829;SDS011;58451;51.550;7.208;2023-05-27T07:28:05;15.20;;;4.50;;
70829;SDS011;58451;51.550;7.208;2023-05-27T07:29:37;22.50;;;5.60;;
70829;SDS011;58451;51.550;7.208;2023-05-27T07:31:17;15.50;;;4.60;;
70829;SDS011;58451;51.550;7.208;2023-05-27T07:32:54;14.60;;;5.30;;
70829;SDS011;58451;51.550;7.208;2023-05-27T07:34:26;18.10;;;5.30;;
70829;SDS011;58451;51.550;7.208;2023-05-27T07:35:59;13.60;;;4.60;;
70829;SDS011;58451;51.550;7.208;2023-05-27T07:37:31;18.30;;;5.70;;
70829;SDS011;58451;51.550;7.208;2023-05-27T07:39:03;17.20;;;5.30;;
70829;SDS011;58451;51.550;7.208;2023-05-27T07:40:35;19.00;;;5.10;;
70829;SDS011;58451;51.550;7.208;2023-05-27T07:42:07;17.20;;;5.50;;
70829;SDS011;58451;51.550;7.208;2023-05-27T07:43:39;17.40;;;5.30;;
70829;SDS011;58451;51.550;7.208;2023-05-27T07:45:11;14.20;;;4.20;;
70829;SDS011;58451;51.550;7.208;2023-05-27T07:46:43;16.20;;;5.60;;
70829;SDS011;58451;51.550;7.208;2023-05-27T07:48:15;17.20;;;5.00;;
70829;SDS011;58451;51.550;7.208;2023-05-27T07:49:49;15.50;;;5.00;;
70829;SDS011;58451;51.550;7.208;2023-05-27T07:51:42;12.70;;;4.30;;
70829;SDS011;58451;51.550;7.208;2023-05-27T07:53:14;13.20;;;4.20;;
70829;SDS011;58451;51.550;7.208;2023-05-27T07:54:48;15.60;;;4.50;;
70829;SDS011;58451;51.550;7.208;2023-05-27T07:56:27;13.70;;;4.30;;
70829;SDS011;58451;51.550;7.208;2023-05-27T07:57:59;13.80;;;4.90;;
70829;SDS011;58451;51.550;7.208;2023-05-27T07:59:36;20.90;;;5.40;;
70829;SDS011;58451;51.550;7.208;2023-05-27T08:01:08;17.10;;;5.30;;
70829;SDS011;58451;51.550;7.208;2023-05-27T08:02:40;15.90;;;4.80;;
70829;SDS011;58451;51.550;7.208;2023-05-27T08:04:13;15.80;;;4.80;;
70829;SDS011;58451;51.550;7.208;2023-05-27T08:06:07;17.60;;;4.50;;
70829;SDS011;58451;51.550;7.208;2023-05-27T08:07:57;15.30;;;4.10;;
70829;SDS011;58451;51.550;7.208;2023-05-27T08:10:05;17.60;;;4.80;;
70829;SDS011;58451;51.550;7.208;2023-05-27T08:11:58;16.10;;;4.30;;
70829;SDS011;58451;51.550;7.208;2023-05-27T08:13:50;16.20;;;4.70;;
70829;SDS011;58451;51.550;7.208;2023-05-27T08:15:39;16.70;;;4.70;;
70829;SDS011;58451;51.550;7.208;2023-05-27T08:17:40;16.20;;;4.60;;
70829;SDS011;58451;51.550;7.208;2023-05-27T08:19:32;16.10;;;5.10;;
70829;SDS011;58451;51.550;7.208;2023-05-27T08:21:27;14.10;;;4.20;;
70829;SDS011;58451;51.550;7.208;2023-05-27T08:23:17;16.30;;;4.10;;
70829;SDS011;58451;51.550;7.208;2023-05-27T08:25:04;13.80;;;4.30;;
70829;SDS011;58451;51.550;7.208;2023-05-27T08:26:53;13.10;;;4.10;;
70829;SDS011;58451;51.550;7.208;2023-05-27T08:28:30;15.40;;;4.30;;
70829;SDS011;58451;51.550;7.208;2023-05-27T08:30:24;14.10;;;4.30;;
70829;SDS011;58451;51.550;7.208;2023-05-27T08:32:08;15.60;;;4.50;;
70829;SDS011;58451;51.550;7.208;2023-05-27T08:33:40;15.60;;;4.40;;
70829;SDS011;58451;51.550;7.208;2023-05-27T08:35:13;15.00;;;4.40;;
70829;SDS011;58451;51.550;7.208;2023-05-27T08:36:45;14.90;;;4.40;;
70829;SDS011;58451;51.550;7.208;2023-05-27T08:38:17;17.60;;;4.60;;
70829;SDS011;58451;51.550;7.208;2023-05-27T08:39:49;16.90;;;4.40;;
70829;SDS011;58451;51.550;7.208;2023-05-27T08:41:31;19.40;;;4.90;;
70829;SDS011;58451;51.550;7.208;2023-05-27T08:43:05;17.30;;;5.20;;
70829;SDS011;58451;51.550;7.208;2023-05-27T08:44:42;16.60;;;4.90;;
70829;SDS011;58451;51.550;7.208;2023-05-27T08:46:14;14.70;;;3.90;;
70829;SDS011;58451;51.550;7.208;2023-05-27T08:47:47;16.70;;;4.60;;
70829;SDS011;58451;51.550;7.208;2023-05-27T08:49:26;14.20;;;4.20;;
70829;SDS011;58451;51.550;7.208;2023-05-27T08:50:58;13.80;;;4.00;;
70829;SDS011;58451;51.550;7.208;2023-05-27T08:52:32;12.80;;;4.40;;
70829;SDS011;58451;51.550;7.208;2023-05-27T08:54:05;14.70;;;3.90;;
70829;SDS011;58451;51.550;7.208;2023-05-27T08:55:39;13.00;;;3.70;;
70829;SDS011;58451;51.550;7.208;2023-05-27T08:57:15;16.20;;;4.10;;
70829;SDS011;58451;51.550;7.208;2023-05-27T08:58:51;15.10;;;4.80;;
70829;SDS011;58451;51.550;7.208;2023-05-27T09:00:26;17.10;;;4.70;;
70829;SDS011;58451;51.550;7.208;2023-05-27T09:02:07;17.20;;;4.50;;
70829;SDS011;58451;51.550;7.208;2023-05-27T09:03:43;15.70;;;4.40;;
70829;SDS011;58451;51.550;7.208;2023-05-27T09:05:17;13.70;;;3.60;;
70829;SDS011;58451;51.550;7.208;2023-05-27T09:06:49;12.80;;;3.70;;
70829;SDS011;58451;51.550;7.208;2023-05-27T09:08:21;12.00;;;3.20;;
70829;SDS011;58451;51.550;7.208;2023-05-27T09:10:04;13.60;;;4.00;;
70829;SDS011;58451;51.550;7.208;2023-05-27T09:11:39;17.10;;;4.90;;
70829;SDS011;58451;51.550;7.208;2023-05-27T09:13:14;14.60;;;4.30;;
70829;SDS011;58451;51.550;7.208;2023-05-27T09:14:56;14.80;;;3.90;;
70829;SDS011;58451;51.550;7.208;2023-05-27T09:16:29;15.60;;;4.80;;
70829;SDS011;58451;51.550;7.208;2023-05-27T09:18:02;13.50;;;4.70;;
70829;SDS011;58451;51.550;7.208;2023-05-27T09:19:34;16.20;;;5.00;;
70829;SDS011;58451;51.550;7.208;2023-05-27T09:21:06;15.90;;;4.70;;
70829;SDS011;58451;51.550;7.208;2023-05-27T09:22:39;14.40;;;4.50;;
70829;SDS011;58451;51.550;7.208;2023-05-27T09:24:12;15.40;;;3.80;;
70829;SDS011;58451;51.550;7.208;2023-05-27T09:25:44;15.40;;;3.80;;